Time;durP1;ratioP1;P1;durP2;ratioP2;P2;SDS_P1;SDS_P2;PMS_P1;PMS_P2;Temp;Humidity;BMP_temperature;BMP_pressure;BME280_temperature;BME280_humidity;BME280_pressure;Samples;Min_cycle;Max_cycle;Signal;HPM_P1;HPM_P2
2022/03/14 00:01:41;;;;;;;130.80;54.13;;;;;;;-1.09;79.18;101225.97;1713807;82;20961;-73
2022/03/14 00:04:10;;;;;;;103.78;51.55;;;;;;;-1.08;79.19;101222.24;1692009;83;21541;-71
2022/03/14 00:06:39;;;;;;;112.22;48.45;;;;;;;-1.07;79.21;101223.90;1696147;84;21115;-71
2022/03/14 00:09:07;;;;;;;93.72;43.28;;;;;;;-1.08;79.20;101226.30;1743173;82;21820;-70
2022/03/14 00:11:35;;;;;;;103.17;46.85;;;;;;;-1.11;79.22;101227.52;1716900;82;21008;-72
2022/03/14 00:14:08;;;;;;;106.47;46.18;;;;;;;-1.11;79.27;101223.46;1740436;81;20920;-69
2022/03/14 00:16:45;;;;;;;109.87;49.10;;;;;;;-1.08;79.29;101224.95;1735092;82;21025;-68
2022/03/14 00:19:14;;;;;;;104.43;45.38;;;;;;;-1.08;79.35;101226.81;1734302;82;21540;-69
2022/03/14 00:21:45;;;;;;;106.72;46.45;;;;;;;-1.10;79.42;101228.36;1698462;84;21841;-69
2022/03/14 00:24:14;;;;;;;110.83;47.62;;;;;;;-1.09;79.57;101228.67;1705304;84;21025;-70
2022/03/14 00:26:44;;;;;;;104.78;45.40;;;;;;;-1.07;79.60;101232.02;1702256;83;20941;-70
2022/03/14 00:29:12;;;;;;;104.67;45.78;;;;;;;-1.06;79.59;101229.65;1739145;82;21480;-72
2022/03/14 00:31:40;;;;;;;98.25;44.15;;;;;;;-1.02;79.64;101227.35;1743234;82;20924;-69
2022/03/14 00:34:09;;;;;;;105.45;44.95;;;;;;;-0.99;79.69;101226.44;1684026;83;21858;-69
2022/03/14 00:36:35;;;;;;;91.28;44.48;;;;;;;-0.95;79.65;101230.09;1706119;83;20937;-67
2022/03/14 00:39:02;;;;;;;95.85;43.25;;;;;;;-0.93;79.64;101234.28;1740648;82;20941;-69
2022/03/14 00:41:30;;;;;;;94.87;43.15;;;;;;;-0.91;79.50;101228.66;1683953;84;21007;-67
2022/03/14 00:43:57;;;;;;;86.35;40.98;;;;;;;-0.90;79.37;101235.23;1705725;84;21436;-69
2022/03/14 00:46:26;;;;;;;89.52;41.33;;;;;;;-0.91;79.32;101239.48;1704492;83;21059;-71
2022/03/14 00:48:55;;;;;;;86.02;40.92;;;;;;;-0.95;79.28;101235.50;1739187;82;20931;-67
2022/03/14 00:51:21;;;;;;;87.70;40.80;;;;;;;-0.97;79.28;101233.00;1691607;83;21458;-71
2022/03/14 00:53:48;;;;;;;89.52;40.35;;;;;;;-0.99;79.27;101233.20;1718805;83;21660;-71
2022/03/14 00:56:16;;;;;;;86.12;39.13;;;;;;;-1.00;79.30;101229.34;1739195;82;21060;-67
2022/03/14 00:58:45;;;;;;;92.15;38.88;;;;;;;-1.02;79.31;101226.00;1743122;82;21049;-68
2022/03/14 01:01:17;;;;;;;85.77;39.88;;;;;;;-1.02;79.42;101226.00;1683792;83;20989;-70
2022/03/14 01:03:44;;;;;;;94.35;41.80;;;;;;;-1.00;79.39;101236.11;1702131;83;21077;-70
2022/03/14 01:06:12;;;;;;;96.30;38.88;;;;;;;-1.04;79.18;101230.26;1739052;82;21458;-71
2022/03/14 01:08:41;;;;;;;93.70;40.88;;;;;;;-1.09;79.21;101238.68;1739948;82;20960;-71
2022/03/14 01:11:09;;;;;;;88.10;41.58;;;;;;;-1.11;79.36;101236.17;1740084;82;21684;-71
2022/03/14 01:13:36;;;;;;;91.28;41.25;;;;;;;-1.08;79.45;101237.13;1741757;81;20972;-70
2022/03/14 01:16:04;;;;;;;89.45;40.23;;;;;;;-1.05;79.40;101233.17;1739101;82;21036;-70
2022/03/14 01:18:31;;;;;;;82.30;38.53;;;;;;;-1.04;79.34;101228.91;1741202;82;20969;-73
2022/03/14 01:20:58;;;;;;;86.47;39.75;;;;;;;-1.01;79.36;101229.86;1739533;82;21103;-71
2022/03/14 01:23:25;;;;;;;89.70;40.38;;;;;;;-0.98;79.40;101228.63;1708421;83;21156;-71
2022/03/14 01:25:53;;;;;;;92.55;41.88;;;;;;;-0.94;79.41;101233.13;1736909;82;20901;-71
2022/03/14 01:28:20;;;;;;;89.97;39.42;;;;;;;-0.90;79.45;101237.09;1740811;81;20992;-71
2022/03/14 01:30:46;;;;;;;88.10;40.88;;;;;;;-0.88;79.32;101232.31;1736526;82;20997;-71
2022/03/14 01:33:14;;;;;;;96.05;41.65;;;;;;;-0.84;79.24;101232.25;1740137;82;21409;-69
2022/03/14 01:35:41;;;;;;;91.67;40.78;;;;;;;-0.83;79.00;101231.20;1706746;83;21254;-69
2022/03/14 01:38:10;;;;;;;91.02;40.95;;;;;;;-0.83;78.71;101229.84;1705853;83;21056;-71
2022/03/14 01:40:37;;;;;;;89.55;40.80;;;;;;;-0.84;78.56;101232.25;1738544;82;20988;-69
2022/03/14 01:43:04;;;;;;;89.80;39.35;;;;;;;-0.86;78.45;101235.16;1743006;82;20889;-70
2022/03/14 01:45:30;;;;;;;91.67;39.65;;;;;;;-0.87;78.41;101240.77;1740788;82;21060;-70
2022/03/14 01:47:57;;;;;;;91.32;42.62;;;;;;;-0.89;78.40;101240.13;1741665;82;21292;-69
2022/03/14 01:50:24;;;;;;;95.80;41.65;;;;;;;-0.92;78.44;101235.12;1738713;81;20935;-69
2022/03/14 01:52:51;;;;;;;86.00;39.13;;;;;;;-0.92;78.60;101239.19;1686584;83;20978;-69
2022/03/14 01:55:18;;;;;;;91.42;39.03;;;;;;;-0.93;78.58;101243.75;1726050;82;20856;-72
2022/03/14 01:57:47;;;;;;;86.87;42.75;;;;;;;-0.91;78.59;101246.26;1732736;82;20908;-69
2022/03/14 02:00:14;;;;;;;94.65;40.80;;;;;;;-0.90;78.61;101246.05;1698699;83;21771;-70
2022/03/14 02:02:42;;;;;;;82.53;41.68;;;;;;;-0.89;78.61;101246.36;1708750;83;20996;-70
2022/03/14 02:05:11;;;;;;;101.00;42.40;;;;;;;-0.86;78.55;101245.14;1686407;83;20997;-69
2022/03/14 02:07:38;;;;;;;92.17;41.30;;;;;;;-0.88;78.40;101240.44;1697681;83;21158;-71
2022/03/14 02:10:07;;;;;;;87.37;39.03;;;;;;;-0.93;78.10;101243.75;1699823;83;21116;-71
2022/03/14 02:12:37;;;;;;;91.10;38.38;;;;;;;-0.94;78.07;101243.45;1711623;83;21847;-69
2022/03/14 02:15:05;;;;;;;86.32;42.50;;;;;;;-0.94;78.14;101246.16;1699084;83;20947;-69
2022/03/14 02:17:34;;;;;;;81.47;38.53;;;;;;;-0.91;78.17;101247.61;1740234;82;21452;-70
2022/03/14 02:20:02;;;;;;;96.37;40.78;;;;;;;-0.91;78.10;101250.32;1736924;82;20928;-70
2022/03/14 02:22:31;;;;;;;97.45;39.85;;;;;;;-0.91;78.20;101253.02;1696697;83;20954;-70
2022/03/14 02:24:59;;;;;;;86.50;41.30;;;;;;;-0.88;78.26;101252.62;1679786;83;21052;-70
2022/03/14 02:27:26;;;;;;;84.00;37.75;;;;;;;-0.84;78.24;101252.55;1742742;82;21560;-69
2022/03/14 02:29:53;;;;;;;90.05;40.60;;;;;;;-0.82;78.11;101254.52;1736477;82;21159;-71
2022/03/14 02:32:21;;;;;;;86.08;37.00;;;;;;;-0.81;77.92;101262.97;1741809;82;21135;-71
2022/03/14 02:34:52;;;;;;;86.02;38.48;;;;;;;-0.84;77.41;101263.38;1690164;84;21005;-70
2022/03/14 02:37:18;;;;;;;89.70;39.20;;;;;;;-0.91;77.20;101263.34;1740227;82;21430;-71
2022/03/14 02:39:47;;;;;;;82.33;36.88;;;;;;;-0.93;77.22;101271.33;1739952;82;21003;-69
2022/03/14 02:42:14;;;;;;;95.65;40.85;;;;;;;-0.95;77.25;101272.89;1707839;83;21025;-70
2022/03/14 02:44:42;;;;;;;90.05;38.78;;;;;;;-0.95;77.37;101269.34;1739226;82;20965;-70
2022/03/14 02:47:11;;;;;;;86.78;40.35;;;;;;;-0.95;77.32;101274.23;1743283;82;21020;-68
2022/03/14 02:49:37;;;;;;;86.15;39.95;;;;;;;-0.94;77.46;101271.02;1737376;82;21155;-70
2022/03/14 02:52:05;;;;;;;95.45;40.33;;;;;;;-0.91;77.61;101273.33;1719879;82;21532;-71
2022/03/14 02:54:35;;;;;;;96.08;41.50;;;;;;;-0.90;77.55;101266.36;1705738;83;21093;-70
2022/03/14 02:57:02;;;;;;;90.17;40.28;;;;;;;-0.90;77.28;101272.28;1707163;83;20973;-69
2022/03/14 02:59:30;;;;;;;88.60;40.40;;;;;;;-0.94;77.23;101261.55;1683133;83;21033;-71
2022/03/14 03:01:59;;;;;;;94.25;39.13;;;;;;;-0.94;77.25;101261.05;1739868;82;20901;-69
2022/03/14 03:04:32;;;;;;;92.27;40.85;;;;;;;-0.94;77.30;101264.26;1716182;82;21099;-70
2022/03/14 03:06:59;;;;;;;104.58;40.98;;;;;;;-0.92;77.49;101264.91;1739185;82;21036;-71
2022/03/14 03:09:30;;;;;;;110.35;46.20;;;;;;;-0.89;77.52;101268.02;1743417;82;21059;-68
2022/03/14 03:11:59;;;;;;;116.30;45.58;;;;;;;-0.87;77.42;101268.66;1735927;82;21489;-72
2022/03/14 03:14:31;;;;;;;117.45;44.38;;;;;;;-0.82;77.41;101268.59;1741390;82;21099;-68
2022/03/14 03:17:00;;;;;;;106.60;45.25;;;;;;;-0.81;77.38;101269.73;1705849;83;23010;-68
2022/03/14 03:19:28;;;;;;;119.08;46.53;;;;;;;-0.79;77.30;101266.32;1743122;82;21084;-71
2022/03/14 03:21:59;;;;;;;114.92;45.70;;;;;;;-0.78;77.21;101276.10;1742571;81;20979;-70
2022/03/14 03:24:30;;;;;;;119.13;46.48;;;;;;;-0.78;77.12;101278.80;1736241;82;20929;-69
2022/03/14 03:27:00;;;;;;;115.30;47.17;;;;;;;-0.78;77.08;101277.45;1737490;81;20960;-70
2022/03/14 03:29:32;;;;;;;99.58;43.68;;;;;;;-0.77;77.15;101276.94;1711866;83;21070;-69
2022/03/14 03:31:59;;;;;;;102.60;42.45;;;;;;;-0.77;77.07;101279.11;1690993;83;21065;-69
2022/03/14 03:34:26;;;;;;;112.77;44.23;;;;;;;-0.77;77.01;101280.47;1712107;82;21023;-72
2022/03/14 03:36:53;;;;;;;109.50;44.70;;;;;;;-0.77;77.04;101286.42;1696353;83;21483;-70
2022/03/14 03:39:19;;;;;;;97.85;42.35;;;;;;;-0.77;77.07;101281.82;1715513;83;21051;-70
2022/03/14 03:41:46;;;;;;;85.53;40.30;;;;;;;-0.77;76.87;101289.12;1715006;83;20909;-70
2022/03/14 03:44:13;;;;;;;86.15;36.15;;;;;;;-0.79;76.82;101292.04;1714453;83;20953;-71
2022/03/14 03:46:43;;;;;;;89.32;35.40;;;;;;;-0.78;76.76;101297.76;1712658;83;21042;-70
2022/03/14 03:49:12;;;;;;;80.67;33.67;;;;;;;-0.79;76.65;101296.10;1702473;83;21029;-73
2022/03/14 03:51:40;;;;;;;88.85;36.00;;;;;;;-0.81;76.27;101302.22;1713443;83;21131;-71
2022/03/14 03:54:08;;;;;;;81.47;32.93;;;;;;;-0.85;76.16;101295.52;1717320;83;21549;-71
2022/03/14 03:56:38;;;;;;;76.60;35.35;;;;;;;-0.90;76.12;101299.34;1707516;83;21073;-71
2022/03/14 03:59:05;;;;;;;80.12;33.58;;;;;;;-0.93;76.24;101297.05;1714273;83;21479;-71
2022/03/14 04:01:33;;;;;;;86.32;36.28;;;;;;;-0.95;76.02;101300.46;1704987;83;20953;-70
2022/03/14 04:04:07;;;;;;;93.45;38.00;;;;;;;-1.02;76.00;101299.06;1711239;83;20926;-71
2022/03/14 04:06:41;;;;;;;102.85;40.28;;;;;;;-1.09;76.03;101302.27;1710504;83;21004;-72
2022/03/14 04:09:10;;;;;;;86.08;36.08;;;;;;;-1.15;76.23;101307.95;1700579;83;21088;-69
2022/03/14 04:11:41;;;;;;;80.87;36.03;;;;;;;-1.17;76.42;101304.59;1739536;82;20996;-72
2022/03/14 04:14:12;;;;;;;86.42;35.65;;;;;;;-1.17;76.65;101302.73;1714027;82;21099;-71
2022/03/14 04:16:41;;;;;;;92.82;35.45;;;;;;;-1.16;76.58;101304.94;1724100;82;21141;-72
2022/03/14 04:19:11;;;;;;;79.47;33.65;;;;;;;-1.16;76.78;101303.05;1695537;83;21096;-71
2022/03/14 04:21:38;;;;;;;72.75;31.15;;;;;;;-1.14;76.77;101302.33;1706471;83;21000;-72
2022/03/14 04:24:07;;;;;;;77.95;33.02;;;;;;;-1.11;76.63;101306.53;1702514;83;21104;-73
2022/03/14 04:26:36;;;;;;;72.20;30.27;;;;;;;-1.10;76.56;101304.13;1703508;83;21015;-73
2022/03/14 04:29:08;;;;;;;73.90;30.88;;;;;;;-1.08;76.54;101310.19;1691451;84;20977;-71
2022/03/14 04:31:41;;;;;;;72.82;32.28;;;;;;;-1.06;76.49;101305.42;1681250;83;21668;-73
2022/03/14 04:34:09;;;;;;;69.55;29.12;;;;;;;-1.02;76.37;101314.80;1738870;82;20992;-70
2022/03/14 04:36:39;;;;;;;75.12;29.65;;;;;;;-1.00;76.22;101311.89;1689185;83;21483;-72
2022/03/14 04:39:07;;;;;;;59.10;27.45;;;;;;;-1.00;76.10;101312.73;1737166;82;21541;-72
2022/03/14 04:41:35;;;;;;;56.08;28.15;;;;;;;-0.97;76.10;101315.55;1739407;82;21105;-73
2022/03/14 04:44:04;;;;;;;59.67;25.70;;;;;;;-0.95;76.02;101316.70;1739749;82;20929;-73
2022/03/14 04:46:32;;;;;;;64.10;27.20;;;;;;;-0.93;75.89;101315.99;1744622;82;21044;-69
2022/03/14 04:49:06;;;;;;;53.38;24.70;;;;;;;-1.01;75.33;101321.87;1728750;82;21534;-73
2022/03/14 04:51:36;;;;;;;52.00;23.27;;;;;;;-1.02;75.33;101320.72;1731736;82;21479;-69
2022/03/14 04:54:06;;;;;;;48.90;25.57;;;;;;;-1.08;75.03;101320.17;1738048;82;21139;-71
2022/03/14 04:56:34;;;;;;;58.20;25.10;;;;;;;-1.17;74.94;101316.27;1706680;83;21171;-70
2022/03/14 04:59:01;;;;;;;52.03;25.62;;;;;;;-1.20;74.87;101319.88;1709332;83;21100;-69
2022/03/14 05:01:30;;;;;;;51.23;24.40;;;;;;;-1.20;75.04;101316.66;1738435;82;21515;-71
2022/03/14 05:03:58;;;;;;;49.50;23.60;;;;;;;-1.15;75.09;101321.48;1744789;81;20924;-73
2022/03/14 05:06:25;;;;;;;51.25;24.15;;;;;;;-1.16;74.95;101326.58;1740316;82;21553;-69
2022/03/14 05:08:54;;;;;;;52.00;26.40;;;;;;;-1.18;74.99;101325.42;1691848;83;21019;-71
2022/03/14 05:11:23;;;;;;;51.33;25.50;;;;;;;-1.18;74.80;101328.64;1744192;82;20936;-72
2022/03/14 05:13:52;;;;;;;62.08;26.12;;;;;;;-1.18;74.68;101332.19;1741459;82;20978;-70
2022/03/14 05:16:21;;;;;;;52.78;24.57;;;;;;;-1.17;74.54;101330.30;1725201;82;21174;-71
2022/03/14 05:18:56;;;;;;;51.68;24.15;;;;;;;-1.16;74.50;101334.70;1689222;83;20893;-72
2022/03/14 05:21:24;;;;;;;47.10;23.90;;;;;;;-1.18;74.42;101340.31;1716367;83;20905;-70
2022/03/14 05:23:52;;;;;;;46.65;23.42;;;;;;;-1.16;74.46;101334.16;1739072;82;21445;-71
2022/03/14 05:26:19;;;;;;;47.85;23.83;;;;;;;-1.13;74.68;101339.71;1698679;83;20984;-71
2022/03/14 05:28:48;;;;;;;46.30;22.52;;;;;;;-1.06;74.64;101340.61;1739693;82;21095;-68
2022/03/14 05:31:17;;;;;;;51.42;24.85;;;;;;;-1.05;74.14;101340.91;1739764;82;21127;-68
2022/03/14 05:33:44;;;;;;;42.53;21.05;;;;;;;-1.06;74.01;101346.02;1744266;82;21024;-71
2022/03/14 05:36:11;;;;;;;54.55;22.85;;;;;;;-1.05;73.89;101346.33;1736535;82;20972;-71
2022/03/14 05:38:41;;;;;;;41.68;20.82;;;;;;;-1.06;73.68;101343.81;1747277;81;21421;-72
2022/03/14 05:41:10;;;;;;;42.43;20.60;;;;;;;-1.06;73.60;101346.52;1739478;82;21005;-72
2022/03/14 05:43:40;;;;;;;45.75;21.97;;;;;;;-1.01;73.70;101346.77;1737851;82;21077;-70
2022/03/14 05:46:10;;;;;;;43.30;20.70;;;;;;;-0.96;73.55;101347.02;1722722;82;21051;-70
2022/03/14 05:48:38;;;;;;;44.13;20.45;;;;;;;-0.90;73.04;101348.07;1734502;82;21083;-71
2022/03/14 05:51:07;;;;;;;42.55;21.50;;;;;;;-0.87;72.95;101349.05;1742504;82;21130;-68
2022/03/14 05:53:36;;;;;;;44.55;19.65;;;;;;;-0.86;72.59;101344.80;1740784;82;21489;-68
2022/03/14 05:56:04;;;;;;;39.50;19.67;;;;;;;-0.78;72.55;101354.61;1724217;82;21759;-71
2022/03/14 05:58:32;;;;;;;38.28;20.40;;;;;;;-0.75;72.01;101347.98;1700300;82;20961;-70
2022/03/14 06:00:59;;;;;;;40.08;18.87;;;;;;;-0.68;72.14;101352.08;1692748;83;21058;-70
2022/03/14 06:03:29;;;;;;;33.50;18.30;;;;;;;-0.66;71.44;101350.83;1708528;83;21047;-70
2022/03/14 06:05:56;;;;;;;38.75;18.37;;;;;;;-0.62;70.92;101349.41;1699647;83;21592;-71
2022/03/14 06:08:23;;;;;;;34.50;18.00;;;;;;;-0.63;70.64;101345.52;1679173;83;21655;-70
2022/03/14 06:10:52;;;;;;;33.58;17.00;;;;;;;-0.62;70.33;101348.56;1717289;82;21041;-70
2022/03/14 06:13:20;;;;;;;38.55;17.27;;;;;;;-0.59;70.49;101349.52;1742259;82;20889;-68
2022/03/14 06:15:47;;;;;;;37.45;17.00;;;;;;;-0.51;70.34;101349.34;1741431;82;21494;-71
2022/03/14 06:18:15;;;;;;;32.35;16.55;;;;;;;-0.46;70.09;101350.09;1681645;83;20961;-70
2022/03/14 06:20:42;;;;;;;35.90;17.45;;;;;;;-0.43;69.73;101347.00;1721492;82;21504;-69
2022/03/14 06:23:10;;;;;;;36.63;17.73;;;;;;;-0.51;67.55;101346.63;1715633;83;21503;-71
2022/03/14 06:25:38;;;;;;;36.45;17.40;;;;;;;-0.58;67.90;101345.76;1727097;82;21144;-69
2022/03/14 06:28:06;;;;;;;45.00;18.25;;;;;;;-0.59;67.49;101352.73;1734198;82;21015;-70
2022/03/14 06:30:32;;;;;;;48.00;19.55;;;;;;;-0.59;67.27;101349.52;1729657;82;20958;-68
2022/03/14 06:32:59;;;;;;;38.48;19.12;;;;;;;-0.60;67.08;101345.66;1686645;83;21514;-71
2022/03/14 06:35:26;;;;;;;39.60;19.30;;;;;;;-0.59;67.11;101350.86;1743198;82;21222;-68
2022/03/14 06:37:53;;;;;;;47.65;19.00;;;;;;;-0.58;66.52;101349.81;1714139;82;21212;-69
2022/03/14 06:40:21;;;;;;;34.70;17.37;;;;;;;-0.59;66.39;101337.33;1743270;82;21043;-70
2022/03/14 06:42:52;;;;;;;34.45;17.98;;;;;;;-0.60;66.17;101338.37;1745566;82;20932;-71
2022/03/14 06:45:23;;;;;;;42.75;19.15;;;;;;;-0.58;65.75;101339.52;1739690;82;21426;-69
2022/03/14 06:47:53;;;;;;;28.23;15.83;;;;;;;-0.60;65.49;101342.94;1740708;82;21018;-67
2022/03/14 06:50:21;;;;;;;37.28;16.70;;;;;;;-0.59;65.14;101351.38;1686136;83;21545;-70
2022/03/14 06:52:49;;;;;;;33.60;18.17;;;;;;;-0.56;65.59;101352.36;1686501;84;21021;-73
2022/03/14 06:55:17;;;;;;;38.20;17.00;;;;;;;-0.51;65.04;101353.41;1697645;84;21044;-69
2022/03/14 06:57:44;;;;;;;30.08;14.98;;;;;;;-0.47;65.26;101351.64;1721466;82;21268;-70
2022/03/14 07:00:12;;;;;;;29.98;15.10;;;;;;;-0.39;64.94;101360.95;1706091;83;20936;-70
2022/03/14 07:02:40;;;;;;;22.32;13.62;;;;;;;-0.34;64.84;101355.77;1740773;82;21441;-70
2022/03/14 07:05:16;;;;;;;23.70;12.58;;;;;;;-0.25;64.21;101366.77;1673862;84;21459;-69
2022/03/14 07:07:47;;;;;;;25.45;12.90;;;;;;;-0.26;63.06;101358.30;1736412;82;20938;-68
2022/03/14 07:10:14;;;;;;;17.45;10.00;;;;;;;-0.31;63.24;101370.29;1738671;82;21100;-66
2022/03/14 07:12:48;;;;;;;19.20;8.80;;;;;;;-0.38;61.91;101366.20;1742123;81;20990;-69
2022/03/14 07:15:19;;;;;;;15.25;7.83;;;;;;;-0.43;62.08;101365.96;1742185;82;20992;-73
2022/03/14 07:17:50;;;;;;;;;;;;;;;-0.39;62.55;101369.08;1741754;81;21608;-72
2022/03/14 07:20:19;;;;;;;16.20;9.30;;;;;;;-0.30;62.56;101365.17;1740223;81;20461;-70
2022/03/14 07:22:53;;;;;;;16.55;9.83;;;;;;;-0.19;62.74;101365.13;1740360;81;21067;-75
2022/03/14 07:25:28;;;;;;;20.17;11.48;;;;;;;-0.07;62.47;101362.64;1740551;81;21000;-73
2022/03/14 07:28:01;;;;;;;25.57;12.55;;;;;;;0.03;62.32;101370.92;1714805;82;21528;-69
2022/03/14 07:30:30;;;;;;;17.10;9.65;;;;;;;0.08;61.89;101373.86;1719668;82;21049;-72
2022/03/14 07:32:57;;;;;;;16.15;9.70;;;;;;;0.17;62.16;101370.45;1741629;81;21531;-74
2022/03/14 07:35:26;;;;;;;12.88;7.90;;;;;;;0.27;62.28;101368.17;1694422;83;21448;-74
2022/03/14 07:37:58;;;;;;;15.55;9.30;;;;;;;0.32;61.48;101368.40;1679386;83;21010;-72
2022/03/14 07:40:25;;;;;;;13.78;7.78;;;;;;;0.36;61.35;101370.16;1681330;83;20957;-74
2022/03/14 07:42:58;;;;;;;17.05;9.63;;;;;;;0.32;60.40;101371.62;1701914;83;21166;-74
2022/03/14 07:45:29;;;;;;;28.23;14.23;;;;;;;0.30;59.92;101373.70;1691299;83;21037;-71
2022/03/14 07:47:58;;;;;;;23.57;13.25;;;;;;;0.23;60.27;101369.10;1685604;83;21984;-69
2022/03/14 07:50:27;;;;;;;28.30;13.48;;;;;;;0.32;60.42;101377.05;1704231;83;21549;-70
2022/03/14 07:52:55;;;;;;;26.48;13.98;;;;;;;0.34;59.44;101373.61;1692913;83;20930;-72
2022/03/14 07:55:23;;;;;;;23.90;12.40;;;;;;;0.27;59.35;101371.41;1680833;83;21099;-72
2022/03/14 07:57:51;;;;;;;21.20;10.53;;;;;;;0.34;60.11;101368.19;1696458;83;21056;-71
2022/03/14 08:00:23;;;;;;;22.02;11.22;;;;;;;0.47;59.13;101361.42;1709059;82;21036;-72
2022/03/14 08:03:01;;;;;;;25.02;11.08;;;;;;;0.43;58.49;101373.72;1735575;82;21079;-73
2022/03/14 08:05:31;;;;;;;27.50;14.70;;;;;;;0.41;58.75;101366.84;1716623;82;21127;-72
2022/03/14 08:08:03;;;;;;;28.47;14.85;;;;;;;0.46;58.51;101373.30;1729892;82;21054;-71
2022/03/14 08:10:36;;;;;;;23.10;12.05;;;;;;;0.43;58.07;101373.72;1710541;83;21002;-69
2022/03/14 08:13:07;;;;;;;22.17;11.97;;;;;;;0.43;58.48;101372.87;1719436;82;21034;-72
2022/03/14 08:15:38;;;;;;;24.25;11.55;;;;;;;0.53;58.47;101376.56;1708114;83;21407;-69
2022/03/14 08:18:08;;;;;;;22.70;11.80;;;;;;;0.60;58.15;101371.95;1714630;82;20952;-67
2022/03/14 08:20:37;;;;;;;18.73;11.78;;;;;;;0.75;59.05;101367.67;1720087;82;21080;-69
2022/03/14 08:23:05;;;;;;;22.35;11.35;;;;;;;0.84;58.09;101367.80;1707653;83;21494;-73
2022/03/14 08:25:34;;;;;;;23.12;11.93;;;;;;;0.89;58.18;101364.44;1744513;82;21849;-70
2022/03/14 08:28:04;;;;;;;20.35;11.25;;;;;;;1.02;58.38;101368.20;1701510;83;21017;-70
2022/03/14 08:33:13;;;;;;;33.95;17.77;;;;;;;1.23;56.41;101377.16;1733912;82;20889;-72
2022/03/14 08:35:40;;;;;;;26.50;15.03;;;;;;;1.13;56.62;101371.63;1741713;82;21519;-68
2022/03/14 08:38:11;;;;;;;17.85;9.15;;;;;;;1.21;56.59;101375.47;1711872;82;21217;-66
2022/03/14 08:40:37;;;;;;;23.95;10.93;;;;;;;1.28;56.85;101363.23;1739030;82;21056;-70
2022/03/14 08:43:04;;;;;;;20.92;10.08;;;;;;;1.43;56.90;101359.45;1678996;82;21015;-70
2022/03/14 08:45:33;;;;;;;17.70;9.63;;;;;;;1.51;55.98;101361.09;1714171;83;20977;-71
2022/03/14 08:48:02;;;;;;;20.95;11.05;;;;;;;1.55;55.87;101355.55;1703263;83;21051;-68
2022/03/14 08:50:38;;;;;;;21.07;11.22;;;;;;;1.60;55.64;101353.03;1677837;83;21472;-71
2022/03/14 08:53:08;;;;;;;17.77;9.15;;;;;;;1.70;55.83;101344.41;1712244;83;21084;-68
2022/03/14 08:55:35;;;;;;;22.52;11.08;;;;;;;1.81;55.81;101349.68;1699223;83;21000;-69
2022/03/14 08:58:04;;;;;;;21.97;12.15;;;;;;;1.83;54.58;101350.30;1692610;83;21135;-73
2022/03/14 09:00:33;;;;;;;20.43;10.75;;;;;;;1.68;54.22;101345.14;1694372;83;20961;-71
2022/03/14 09:03:00;;;;;;;67.67;30.60;;;;;;;1.58;54.28;101351.89;1737182;82;21238;-68
2022/03/14 09:05:29;;;;;;;65.75;31.70;;;;;;;1.44;54.74;101348.38;1737366;82;20981;-70
2022/03/14 09:08:04;;;;;;;56.37;28.75;;;;;;;1.39;54.99;101340.54;1740396;82;20991;-71
2022/03/14 09:10:37;;;;;;;64.60;31.62;;;;;;;1.50;55.81;101344.49;1686599;84;21009;-69
2022/03/14 09:13:07;;;;;;;73.77;35.13;;;;;;;1.68;55.50;101341.91;1738532;82;21021;-72
2022/03/14 09:15:36;;;;;;;35.03;18.65;;;;;;;1.87;55.83;101338.48;1737774;82;20965;-72
2022/03/14 09:18:04;;;;;;;58.70;28.62;;;;;;;2.08;55.50;101338.69;1719876;82;21008;-73
2022/03/14 09:20:32;;;;;;;47.30;23.92;;;;;;;2.25;54.63;101332.17;1696215;83;21001;-73
2022/03/14 09:23:03;;;;;;;47.93;23.45;;;;;;;2.40;54.65;101330.53;1727651;82;21608;-72
2022/03/14 09:25:30;;;;;;;20.43;12.40;;;;;;;2.51;52.91;101325.39;1710421;83;21017;-72
2022/03/14 09:27:57;;;;;;;33.92;16.20;;;;;;;2.31;52.41;101312.27;1716222;83;21693;-71
2022/03/14 09:30:24;;;;;;;55.35;24.00;;;;;;;2.22;52.53;101316.84;1714959;83;20918;-72
2022/03/14 09:32:51;;;;;;;46.30;23.52;;;;;;;2.27;53.23;101310.22;1709972;83;20979;-72
2022/03/14 09:35:21;;;;;;;45.88;21.93;;;;;;;2.45;53.50;101302.64;1708839;83;20974;-72
2022/03/14 09:37:52;;;;;;;39.20;19.73;;;;;;;2.65;53.20;101294.83;1694620;83;20990;-68
2022/03/14 09:40:21;;;;;;;34.63;16.40;;;;;;;2.69;51.59;101297.42;1716159;82;21562;-71
2022/03/14 09:42:55;;;;;;;32.48;17.02;;;;;;;2.48;51.45;101294.55;1712402;82;20950;-68
2022/03/14 09:45:25;;;;;;;28.75;14.43;;;;;;;2.38;52.39;101296.41;1708462;82;21060;-69
2022/03/14 09:47:59;;;;;;;31.45;15.98;;;;;;;2.45;52.04;101301.80;1693322;83;21041;-70
2022/03/14 09:50:38;;;;;;;31.80;14.30;;;;;;;2.44;51.96;101305.04;1700884;83;21016;-71
2022/03/14 09:53:10;;;;;;;37.45;19.73;;;;;;;2.57;52.85;101297.83;1711195;83;21061;-71
2022/03/14 09:55:46;;;;;;;37.23;18.12;;;;;;;2.84;51.97;101299.78;1708143;83;20933;-72
2022/03/14 09:58:18;;;;;;;47.13;22.13;;;;;;;2.91;51.29;101299.20;1696084;83;21737;-70
2022/03/14 10:00:49;;;;;;;60.98;27.55;;;;;;;2.99;50.88;101303.52;1695483;83;21037;-67
2022/03/14 10:03:17;;;;;;;39.00;19.42;;;;;;;3.09;50.92;101293.45;1696864;83;20957;-69
2022/03/14 10:05:51;;;;;;;34.70;15.55;;;;;;;3.13;50.61;101292.47;1690801;83;21121;-71
2022/03/14 10:08:22;;;;;;;17.23;8.98;;;;;;;3.15;50.96;101287.11;1698373;83;21097;-68
2022/03/14 10:10:48;;;;;;;9.90;6.67;;;;;;;3.35;51.44;101288.77;1703831;83;21013;-69
2022/03/14 10:13:17;;;;;;;10.55;7.17;;;;;;;3.58;51.07;101285.03;1706949;83;20973;-72
2022/03/14 10:15:45;;;;;;;14.95;8.38;;;;;;;3.70;49.55;101281.81;1703440;83;21054;-70
2022/03/14 10:18:18;;;;;;;15.88;9.68;;;;;;;3.74;49.67;101274.01;1691582;83;21043;-70
2022/03/14 10:21:11;;;;;;;14.53;8.55;;;;;;;3.81;50.21;101270.66;1715060;82;20980;-72
2022/03/14 10:23:43;;;;;;;16.70;9.75;;;;;;;3.89;49.78;101264.88;1698060;82;20978;-70
2022/03/14 10:26:16;;;;;;;19.15;9.63;;;;;;;4.00;50.02;101265.98;1702382;83;21076;-69
2022/03/14 10:28:49;;;;;;;11.63;6.90;;;;;;;4.13;49.38;101258.13;1701044;83;20966;-68
2022/03/14 10:31:36;;;;;;;17.40;8.15;;;;;;;4.20;49.02;101261.27;1688900;83;20970;-71
2022/03/14 10:34:12;;;;;;;16.65;7.65;;;;;;;4.23;48.59;101262.19;1707555;82;21052;-70
2022/03/14 10:36:51;;;;;;;11.10;7.20;;;;;;;4.26;48.76;101264.45;1714435;82;21238;-73
2022/03/14 10:39:26;;;;;;;13.48;7.53;;;;;;;4.23;48.45;101264.92;1709364;82;21076;-69
2022/03/14 10:42:13;;;;;;;13.08;7.92;;;;;;;4.30;48.46;101264.81;1713147;83;21442;-72
2022/03/14 10:44:42;;;;;;;15.25;8.23;;;;;;;4.33;48.77;101253.42;1702599;83;21336;-73
2022/03/14 10:47:12;;;;;;;10.95;6.15;;;;;;;4.47;48.32;101258.13;1710260;83;21187;-70
2022/03/14 10:49:43;;;;;;;17.70;6.87;;;;;;;4.51;47.43;101248.38;1703509;83;21060;-72
2022/03/14 10:52:14;;;;;;;9.30;5.92;;;;;;;4.48;46.16;101242.88;1737851;81;21683;-73
2022/03/14 10:54:43;;;;;;;10.30;6.42;;;;;;;4.38;46.99;101236.61;1716753;82;20988;-67
2022/03/14 10:57:26;;;;;;;12.78;7.83;;;;;;;4.46;47.32;101237.34;1730675;82;21781;-73
2022/03/14 10:59:58;;;;;;;12.37;6.97;;;;;;;4.54;47.33;101236.98;1715603;82;21033;-72
2022/03/14 11:02:28;;;;;;;10.85;6.20;;;;;;;4.68;47.47;101238.10;1724059;82;21734;-71
2022/03/14 11:05:02;;;;;;;10.45;5.75;;;;;;;4.78;46.77;101236.97;1738517;81;21036;-70
2022/03/14 11:07:31;;;;;;;10.65;6.30;;;;;;;4.85;47.34;101228.65;1698709;83;20952;-70
2022/03/14 11:10:05;;;;;;;12.88;7.70;;;;;;;4.81;46.61;101224.20;1695732;83;21116;-71
2022/03/14 11:12:36;;;;;;;9.93;5.40;;;;;;;4.84;46.64;101218.28;1694325;83;21002;-70
2022/03/14 11:15:09;;;;;;;11.95;7.05;;;;;;;4.95;46.54;101223.41;1679329;83;21028;-71
2022/03/14 11:17:42;;;;;;;10.68;6.87;;;;;;;4.93;45.75;101218.72;1738395;81;21103;-70
2022/03/14 11:20:11;;;;;;;16.93;7.90;;;;;;;4.93;46.35;101222.00;1692106;83;20898;-68
2022/03/14 11:22:41;;;;;;;13.45;7.53;;;;;;;4.98;46.20;101209.27;1690238;83;21695;-72
2022/03/14 11:25:09;;;;;;;14.13;7.53;;;;;;;5.07;46.04;101213.83;1698023;83;21060;-71